sensor_id;sensor_type;location;lat;lon;timestamp;temperature;humidity
42885;DHT22;28534;48.100;11.584;2023-08-24T00:00:12;27.10;66.10
42885;DHT22;28534;48.100;11.584;2023-08-24T00:01:14;27.00;66.30
42885;DHT22;28534;48.100;11.584;2023-08-24T00:02:16;27.00;66.60
42885;DHT22;28534;48.100;11.584;2023-08-24T00:03:18;27.00;66.60
42885;DHT22;28534;48.100;11.584;2023-08-24T00:04:19;26.90;66.30
42885;DHT22;28534;48.100;11.584;2023-08-24T00:05:20;26.90;66.50
42885;DHT22;28534;48.100;11.584;2023-08-24T00:06:21;26.90;66.40
42885;DHT22;28534;48.100;11.584;2023-08-24T00:07:23;26.90;66.70
42885;DHT22;28534;48.100;11.584;2023-08-24T00:08:23;27.00;66.50
42885;DHT22;28534;48.100;11.584;2023-08-24T00:09:25;27.00;66.30
42885;DHT22;28534;48.100;11.584;2023-08-24T00:10:25;26.90;66.30
42885;DHT22;28534;48.100;11.584;2023-08-24T00:11:26;27.00;66.60
42885;DHT22;28534;48.100;11.584;2023-08-24T00:12:28;27.10;66.30
42885;DHT22;28534;48.100;11.584;2023-08-24T00:13:29;27.10;66.30
42885;DHT22;28534;48.100;11.584;2023-08-24T00:14:31;27.00;66.40
42885;DHT22;28534;48.100;11.584;2023-08-24T00:15:32;26.90;66.80
42885;DHT22;28534;48.100;11.584;2023-08-24T00:16:34;26.90;66.80
42885;DHT22;28534;48.100;11.584;2023-08-24T00:17:34;26.80;67.60
42885;DHT22;28534;48.100;11.584;2023-08-24T00:18:36;26.70;68.10
42885;DHT22;28534;48.100;11.584;2023-08-24T00:19:37;26.50;68.40
42885;DHT22;28534;48.100;11.584;2023-08-24T00:20:38;26.50;68.90
42885;DHT22;28534;48.100;11.584;2023-08-24T00:21:39;26.50;68.40
42885;DHT22;28534;48.100;11.584;2023-08-24T00:22:39;26.50;68.20
42885;DHT22;28534;48.100;11.584;2023-08-24T00:23:41;26.50;68.10
42885;DHT22;28534;48.100;11.584;2023-08-24T00:24:42;26.50;68.10
42885;DHT22;28534;48.100;11.584;2023-08-24T00:25:44;26.60;68.80
42885;DHT22;28534;48.100;11.584;2023-08-24T00:26:44;26.70;67.90
42885;DHT22;28534;48.100;11.584;2023-08-24T00:27:46;26.70;67.80
42885;DHT22;28534;48.100;11.584;2023-08-24T00:28:48;26.60;67.80
42885;DHT22;28534;48.100;11.584;2023-08-24T00:29:50;26.60;68.10
42885;DHT22;28534;48.100;11.584;2023-08-24T00:30:50;26.50;68.00
42885;DHT22;28534;48.100;11.584;2023-08-24T00:31:52;26.70;67.80
42885;DHT22;28534;48.100;11.584;2023-08-24T00:32:52;26.80;67.30
42885;DHT22;28534;48.100;11.584;2023-08-24T00:33:54;26.80;66.80
42885;DHT22;28534;48.100;11.584;2023-08-24T00:34:55;26.80;67.10
42885;DHT22;28534;48.100;11.584;2023-08-24T00:35:58;26.80;66.80
42885;DHT22;28534;48.100;11.584;2023-08-24T00:37:00;26.80;66.80
42885;DHT22;28534;48.100;11.584;2023-08-24T00:38:01;26.80;66.80
42885;DHT22;28534;48.100;11.584;2023-08-24T00:39:03;26.80;66.80
42885;DHT22;28534;48.100;11.584;2023-08-24T00:40:04;26.80;66.80
42885;DHT22;28534;48.100;11.584;2023-08-24T00:41:09;26.90;66.70
42885;DHT22;28534;48.100;11.584;2023-08-24T00:42:10;26.90;66.60
42885;DHT22;28534;48.100;11.584;2023-08-24T00:43:15;26.80;66.80
42885;DHT22;28534;48.100;11.584;2023-08-24T00:44:18;26.90;66.80
42885;DHT22;28534;48.100;11.584;2023-08-24T00:45:18;26.80;66.80
42885;DHT22;28534;48.100;11.584;2023-08-24T00:46:20;26.90;66.80
42885;DHT22;28534;48.100;11.584;2023-08-24T00:47:23;26.90;66.50
42885;DHT22;28534;48.100;11.584;2023-08-24T00:48:23;27.00;66.50
42885;DHT22;28534;48.100;11.584;2023-08-24T00:49:28;27.00;66.20
42885;DHT22;28534;48.100;11.584;2023-08-24T00:50:29;27.00;66.20
42885;DHT22;28534;48.100;11.584;2023-08-24T00:51:30;27.00;66.00
42885;DHT22;28534;48.100;11.584;2023-08-24T00:52:31;27.00;66.00
42885;DHT22;28534;48.100;11.584;2023-08-24T00:53:33;27.00;65.70
42885;DHT22;28534;48.100;11.584;2023-08-24T00:54:35;27.00;66.00
42885;DHT22;28534;48.100;11.584;2023-08-24T00:55:37;26.90;66.10
42885;DHT22;28534;48.100;11.584;2023-08-24T00:56:37;26.90;66.50
42885;DHT22;28534;48.100;11.584;2023-08-24T00:57:39;26.90;66.50
42885;DHT22;28534;48.100;11.584;2023-08-24T00:58:40;26.90;66.10
42885;DHT22;28534;48.100;11.584;2023-08-24T00:59:43;26.90;66.10
42885;DHT22;28534;48.100;11.584;2023-08-24T01:00:44;26.90;66.20
42885;DHT22;28534;48.100;11.584;2023-08-24T01:01:46;26.80;66.30
42885;DHT22;28534;48.100;11.584;2023-08-24T01:02:47;26.90;66.30
42885;DHT22;28534;48.100;11.584;2023-08-24T01:03:48;26.90;66.30
42885;DHT22;28534;48.100;11.584;2023-08-24T01:04:49;26.80;67.30
42885;DHT22;28534;48.100;11.584;2023-08-24T01:05:51;26.80;66.60
42885;DHT22;28534;48.100;11.584;2023-08-24T01:06:51;26.70;66.50
42885;DHT22;28534;48.100;11.584;2023-08-24T01:07:53;26.80;66.70
42885;DHT22;28534;48.100;11.584;2023-08-24T01:08:54;26.80;66.70
42885;DHT22;28534;48.100;11.584;2023-08-24T01:09:56;26.80;66.70
42885;DHT22;28534;48.100;11.584;2023-08-24T01:10:59;26.80;66.60
42885;DHT22;28534;48.100;11.584;2023-08-24T01:12:02;26.80;66.70
42885;DHT22;28534;48.100;11.584;2023-08-24T01:13:07;26.80;66.60
42885;DHT22;28534;48.100;11.584;2023-08-24T01:14:08;26.70;66.60
42885;DHT22;28534;48.100;11.584;2023-08-24T01:15:17;26.70;66.60
42885;DHT22;28534;48.100;11.584;2023-08-24T01:16:20;26.70;66.60
42885;DHT22;28534;48.100;11.584;2023-08-24T01:17:22;26.70;66.60
42885;DHT22;28534;48.100;11.584;2023-08-24T01:18:24;26.70;66.50
42885;DHT22;28534;48.100;11.584;2023-08-24T01:19:33;26.80;66.50
42885;DHT22;28534;48.100;11.584;2023-08-24T01:20:35;26.70;66.40
42885;DHT22;28534;48.100;11.584;2023-08-24T01:21:37;26.80;66.50
42885;DHT22;28534;48.100;11.584;2023-08-24T01:22:41;26.80;66.50
42885;DHT22;28534;48.100;11.584;2023-08-24T01:23:48;26.80;66.60
42885;DHT22;28534;48.100;11.584;2023-08-24T01:24:52;26.80;66.60
42885;DHT22;28534;48.100;11.584;2023-08-24T01:26:00;26.70;66.50
42885;DHT22;28534;48.100;11.584;2023-08-24T01:27:01;26.70;66.30
42885;DHT22;28534;48.100;11.584;2023-08-24T01:28:05;26.70;66.60
42885;DHT22;28534;48.100;11.584;2023-08-24T01:29:06;26.70;66.50
42885;DHT22;28534;48.100;11.584;2023-08-24T01:30:07;26.80;66.40
42885;DHT22;28534;48.100;11.584;2023-08-24T01:31:08;26.90;66.00
42885;DHT22;28534;48.100;11.584;2023-08-24T01:32:10;26.80;66.00
42885;DHT22;28534;48.100;11.584;2023-08-24T01:33:11;26.80;66.20
42885;DHT22;28534;48.100;11.584;2023-08-24T01:34:13;26.80;66.30
42885;DHT22;28534;48.100;11.584;2023-08-24T01:35:14;26.80;66.30
42885;DHT22;28534;48.100;11.584;2023-08-24T01:36:15;26.80;66.40
42885;DHT22;28534;48.100;11.584;2023-08-24T01:37:17;26.60;66.20
42885;DHT22;28534;48.100;11.584;2023-08-24T01:38:19;26.70;66.20
42885;DHT22;28534;48.100;11.584;2023-08-24T01:39:23;26.70;66.30
42885;DHT22;28534;48.100;11.584;2023-08-24T01:40:31;26.70;66.20
42885;DHT22;28534;48.100;11.584;2023-08-24T01:41:37;26.70;66.30
42885;DHT22;28534;48.100;11.584;2023-08-24T01:42:42;26.70;66.30
42885;DHT22;28534;48.100;11.584;2023-08-24T01:43:43;26.70;66.10
42885;DHT22;28534;48.100;11.584;2023-08-24T01:44:47;26.70;66.20
42885;DHT22;28534;48.100;11.584;2023-08-24T01:45:48;26.70;66.20
42885;DHT22;28534;48.100;11.584;2023-08-24T01:46:50;26.70;66.30
42885;DHT22;28534;48.100;11.584;2023-08-24T01:47:52;26.70;66.20
42885;DHT22;28534;48.100;11.584;2023-08-24T01:48:55;26.60;66.10
42885;DHT22;28534;48.100;11.584;2023-08-24T01:49:56;26.70;66.20
42885;DHT22;28534;48.100;11.584;2023-08-24T01:50:58;26.70;66.00
42885;DHT22;28534;48.100;11.584;2023-08-24T01:51:59;26.70;66.00
42885;DHT22;28534;48.100;11.584;2023-08-24T01:53:02;26.70;66.20
42885;DHT22;28534;48.100;11.584;2023-08-24T01:54:03;26.70;67.00
42885;DHT22;28534;48.100;11.584;2023-08-24T01:55:05;26.70;66.00
42885;DHT22;28534;48.100;11.584;2023-08-24T01:56:09;26.70;66.00
42885;DHT22;28534;48.100;11.584;2023-08-24T01:57:12;26.70;65.90
42885;DHT22;28534;48.100;11.584;2023-08-24T01:58:13;26.80;65.90
42885;DHT22;28534;48.100;11.584;2023-08-24T01:59:14;26.70;65.90
42885;DHT22;28534;48.100;11.584;2023-08-24T02:00:15;26.70;66.60
42885;DHT22;28534;48.100;11.584;2023-08-24T02:01:17;26.70;65.90
42885;DHT22;28534;48.100;11.584;2023-08-24T02:02:18;26.70;65.90
42885;DHT22;28534;48.100;11.584;2023-08-24T02:03:19;26.70;65.60
42885;DHT22;28534;48.100;11.584;2023-08-24T02:04:20;26.70;65.60
42885;DHT22;28534;48.100;11.584;2023-08-24T02:05:21;26.70;65.70
42885;DHT22;28534;48.100;11.584;2023-08-24T02:06:22;26.60;65.80
42885;DHT22;28534;48.100;11.584;2023-08-24T02:07:23;26.60;66.00
42885;DHT22;28534;48.100;11.584;2023-08-24T02:08:24;26.60;65.90
42885;DHT22;28534;48.100;11.584;2023-08-24T02:09:25;26.60;66.00
42885;DHT22;28534;48.100;11.584;2023-08-24T02:10:27;26.60;66.70
42885;DHT22;28534;48.100;11.584;2023-08-24T02:11:27;26.60;65.80
42885;DHT22;28534;48.100;11.584;2023-08-24T02:12:30;26.60;65.70
42885;DHT22;28534;48.100;11.584;2023-08-24T02:13:31;26.70;65.70
42885;DHT22;28534;48.100;11.584;2023-08-24T02:14:33;26.70;65.70
42885;DHT22;28534;48.100;11.584;2023-08-24T02:15:33;26.70;65.60
42885;DHT22;28534;48.100;11.584;2023-08-24T02:16:35;26.60;65.50
42885;DHT22;28534;48.100;11.584;2023-08-24T02:17:36;26.70;65.70
42885;DHT22;28534;48.100;11.584;2023-08-24T02:18:37;26.70;65.70
42885;DHT22;28534;48.100;11.584;2023-08-24T02:19:38;26.60;65.50
42885;DHT22;28534;48.100;11.584;2023-08-24T02:20:41;26.60;65.50
42885;DHT22;28534;48.100;11.584;2023-08-24T02:21:42;26.60;65.40
42885;DHT22;28534;48.100;11.584;2023-08-24T02:22:43;26.60;65.70
42885;DHT22;28534;48.100;11.584;2023-08-24T02:23:44;26.50;65.50
42885;DHT22;28534;48.100;11.584;2023-08-24T02:24:45;26.60;65.70
42885;DHT22;28534;48.100;11.584;2023-08-24T02:25:46;26.60;65.80
42885;DHT22;28534;48.100;11.584;2023-08-24T02:26:48;26.60;65.80
42885;DHT22;28534;48.100;11.584;2023-08-24T02:27:50;26.60;65.60
42885;DHT22;28534;48.100;11.584;2023-08-24T02:28:52;26.60;65.60
42885;DHT22;28534;48.100;11.584;2023-08-24T02:29:52;26.60;65.50
42885;DHT22;28534;48.100;11.584;2023-08-24T02:30:54;26.60;65.70
42885;DHT22;28534;48.100;11.584;2023-08-24T02:31:54;26.60;65.70
42885;DHT22;28534;48.100;11.584;2023-08-24T02:32:56;26.60;65.70
42885;DHT22;28534;48.100;11.584;2023-08-24T02:33:57;26.50;65.50
42885;DHT22;28534;48.100;11.584;2023-08-24T02:34:58;26.60;65.60
42885;DHT22;28534;48.100;11.584;2023-08-24T02:35:59;26.60;65.40
42885;DHT22;28534;48.100;11.584;2023-08-24T02:37:00;26.50;65.50
42885;DHT22;28534;48.100;11.584;2023-08-24T02:38:01;26.60;65.40
42885;DHT22;28534;48.100;11.584;2023-08-24T02:39:03;26.50;65.50
42885;DHT22;28534;48.100;11.584;2023-08-24T02:40:05;26.50;65.50
42885;DHT22;28534;48.100;11.584;2023-08-24T02:41:09;26.60;65.70
42885;DHT22;28534;48.100;11.584;2023-08-24T02:42:11;26.50;65.30
42885;DHT22;28534;48.100;11.584;2023-08-24T02:43:14;26.50;65.40
42885;DHT22;28534;48.100;11.584;2023-08-24T02:44:14;26.50;65.40
42885;DHT22;28534;48.100;11.584;2023-08-24T02:45:16;26.50;65.40
42885;DHT22;28534;48.100;11.584;2023-08-24T02:46:16;26.50;65.30
42885;DHT22;28534;48.100;11.584;2023-08-24T02:47:18;26.60;65.40
42885;DHT22;28534;48.100;11.584;2023-08-24T02:48:19;26.50;65.20
42885;DHT22;28534;48.100;11.584;2023-08-24T02:49:20;26.60;65.30
42885;DHT22;28534;48.100;11.584;2023-08-24T02:50:22;26.50;65.30
42885;DHT22;28534;48.100;11.584;2023-08-24T02:51:22;26.50;65.20
42885;DHT22;28534;48.100;11.584;2023-08-24T02:52:24;26.50;65.10
42885;DHT22;28534;48.100;11.584;2023-08-24T02:53:25;26.60;65.00
42885;DHT22;28534;48.100;11.584;2023-08-24T02:54:27;26.60;65.10
42885;DHT22;28534;48.100;11.584;2023-08-24T02:55:28;26.50;65.40
42885;DHT22;28534;48.100;11.584;2023-08-24T02:56:32;26.40;65.70
42885;DHT22;28534;48.100;11.584;2023-08-24T02:57:34;26.30;66.10
42885;DHT22;28534;48.100;11.584;2023-08-24T02:58:37;26.20;66.50
42885;DHT22;28534;48.100;11.584;2023-08-24T02:59:37;26.10;66.60
42885;DHT22;28534;48.100;11.584;2023-08-24T03:00:39;26.20;66.30
42885;DHT22;28534;48.100;11.584;2023-08-24T03:01:40;26.30;65.70
42885;DHT22;28534;48.100;11.584;2023-08-24T03:02:41;26.30;65.70
42885;DHT22;28534;48.100;11.584;2023-08-24T03:03:42;26.30;65.50
42885;DHT22;28534;48.100;11.584;2023-08-24T03:04:43;26.30;65.60
42885;DHT22;28534;48.100;11.584;2023-08-24T03:05:52;26.30;65.50
42885;DHT22;28534;48.100;11.584;2023-08-24T03:06:54;26.30;65.50
42885;DHT22;28534;48.100;11.584;2023-08-24T03:07:54;26.40;65.20
42885;DHT22;28534;48.100;11.584;2023-08-24T03:08:56;26.40;65.10
42885;DHT22;28534;48.100;11.584;2023-08-24T03:09:57;26.30;65.50
42885;DHT22;28534;48.100;11.584;2023-08-24T03:10:59;26.30;65.80
42885;DHT22;28534;48.100;11.584;2023-08-24T03:11:59;26.30;65.30
42885;DHT22;28534;48.100;11.584;2023-08-24T03:13:01;26.30;65.00
42885;DHT22;28534;48.100;11.584;2023-08-24T03:14:04;26.30;65.00
42885;DHT22;28534;48.100;11.584;2023-08-24T03:15:06;26.30;65.10
42885;DHT22;28534;48.100;11.584;2023-08-24T03:16:07;26.30;64.90
42885;DHT22;28534;48.100;11.584;2023-08-24T03:17:09;26.30;65.10
42885;DHT22;28534;48.100;11.584;2023-08-24T03:18:11;26.40;65.00
42885;DHT22;28534;48.100;11.584;2023-08-24T03:19:12;26.40;64.70
42885;DHT22;28534;48.100;11.584;2023-08-24T03:20:14;26.40;64.80
42885;DHT22;28534;48.100;11.584;2023-08-24T03:21:16;26.40;64.70
42885;DHT22;28534;48.100;11.584;2023-08-24T03:22:17;26.40;64.70
42885;DHT22;28534;48.100;11.584;2023-08-24T03:23:18;26.40;64.70
42885;DHT22;28534;48.100;11.584;2023-08-24T03:24:19;26.40;64.60
42885;DHT22;28534;48.100;11.584;2023-08-24T03:25:21;26.40;64.60
42885;DHT22;28534;48.100;11.584;2023-08-24T03:26:21;26.30;64.30
42885;DHT22;28534;48.100;11.584;2023-08-24T03:27:23;26.40;64.40
42885;DHT22;28534;48.100;11.584;2023-08-24T03:28:24;26.40;64.40
42885;DHT22;28534;48.100;11.584;2023-08-24T03:29:27;26.30;64.40
42885;DHT22;28534;48.100;11.584;2023-08-24T03:30:27;26.30;64.50
42885;DHT22;28534;48.100;11.584;2023-08-24T03:31:29;26.30;64.60
42885;DHT22;28534;48.100;11.584;2023-08-24T03:32:29;26.30;64.70
42885;DHT22;28534;48.100;11.584;2023-08-24T03:33:31;26.30;64.60
42885;DHT22;28534;48.100;11.584;2023-08-24T03:34:33;26.30;64.60
42885;DHT22;28534;48.100;11.584;2023-08-24T03:35:35;26.30;64.70
42885;DHT22;28534;48.100;11.584;2023-08-24T03:36:35;26.30;64.60
42885;DHT22;28534;48.100;11.584;2023-08-24T03:37:38;26.30;64.40
42885;DHT22;28534;48.100;11.584;2023-08-24T03:38:39;26.30;64.60
42885;DHT22;28534;48.100;11.584;2023-08-24T03:39:40;26.30;64.50
42885;DHT22;28534;48.100;11.584;2023-08-24T03:40:41;26.30;64.40
42885;DHT22;28534;48.100;11.584;2023-08-24T03:41:42;26.30;64.40
42885;DHT22;28534;48.100;11.584;2023-08-24T03:42:43;26.30;64.40
42885;DHT22;28534;48.100;11.584;2023-08-24T03:43:45;26.30;64.30
42885;DHT22;28534;48.100;11.584;2023-08-24T03:44:47;26.30;64.40
42885;DHT22;28534;48.100;11.584;2023-08-24T03:45:48;26.30;64.20
42885;DHT22;28534;48.100;11.584;2023-08-24T03:46:49;26.30;64.30
42885;DHT22;28534;48.100;11.584;2023-08-24T03:47:50;26.30;64.20
42885;DHT22;28534;48.100;11.584;2023-08-24T03:48:51;26.30;64.20
42885;DHT22;28534;48.100;11.584;2023-08-24T03:49:53;26.20;64.10
42885;DHT22;28534;48.100;11.584;2023-08-24T03:50:54;26.30;64.20
42885;DHT22;28534;48.100;11.584;2023-08-24T03:51:55;26.30;64.10
42885;DHT22;28534;48.100;11.584;2023-08-24T03:52:56;26.30;64.20
42885;DHT22;28534;48.100;11.584;2023-08-24T03:53:57;26.30;64.10
42885;DHT22;28534;48.100;11.584;2023-08-24T03:54:58;26.30;64.00
42885;DHT22;28534;48.100;11.584;2023-08-24T03:56:00;26.30;64.20
42885;DHT22;28534;48.100;11.584;2023-08-24T03:57:00;26.30;63.90
42885;DHT22;28534;48.100;11.584;2023-08-24T03:58:02;26.30;64.10
42885;DHT22;28534;48.100;11.584;2023-08-24T03:59:03;26.30;64.00
42885;DHT22;28534;48.100;11.584;2023-08-24T04:00:07;26.30;64.00
42885;DHT22;28534;48.100;11.584;2023-08-24T04:01:11;26.30;64.20
42885;DHT22;28534;48.100;11.584;2023-08-24T04:02:12;26.20;64.20
42885;DHT22;28534;48.100;11.584;2023-08-24T04:03:13;26.20;64.20
42885;DHT22;28534;48.100;11.584;2023-08-24T04:04:15;26.20;64.20
42885;DHT22;28534;48.100;11.584;2023-08-24T04:05:15;26.20;64.00
42885;DHT22;28534;48.100;11.584;2023-08-24T04:06:18;26.20;64.30
42885;DHT22;28534;48.100;11.584;2023-08-24T04:07:19;26.20;64.10
42885;DHT22;28534;48.100;11.584;2023-08-24T04:08:21;26.20;64.00
42885;DHT22;28534;48.100;11.584;2023-08-24T04:09:21;26.20;64.00
42885;DHT22;28534;48.100;11.584;2023-08-24T04:10:23;26.30;63.90
42885;DHT22;28534;48.100;11.584;2023-08-24T04:11:24;26.20;63.90
42885;DHT22;28534;48.100;11.584;2023-08-24T04:12:25;26.20;63.80
42885;DHT22;28534;48.100;11.584;2023-08-24T04:13:26;26.20;63.90
42885;DHT22;28534;48.100;11.584;2023-08-24T04:14:27;26.20;63.90
42885;DHT22;28534;48.100;11.584;2023-08-24T04:15:29;26.20;63.70
42885;DHT22;28534;48.100;11.584;2023-08-24T04:16:30;26.20;63.80
42885;DHT22;28534;48.100;11.584;2023-08-24T04:17:32;26.20;64.00
42885;DHT22;28534;48.100;11.584;2023-08-24T04:18:32;26.20;64.00
42885;DHT22;28534;48.100;11.584;2023-08-24T04:19:33;26.20;63.90
42885;DHT22;28534;48.100;11.584;2023-08-24T04:20:34;26.20;63.90
42885;DHT22;28534;48.100;11.584;2023-08-24T04:21:35;26.20;63.70
42885;DHT22;28534;48.100;11.584;2023-08-24T04:22:36;26.30;63.90
42885;DHT22;28534;48.100;11.584;2023-08-24T04:23:37;26.20;63.70
42885;DHT22;28534;48.100;11.584;2023-08-24T04:24:39;26.20;63.60
42885;DHT22;28534;48.100;11.584;2023-08-24T04:25:40;26.20;63.90
42885;DHT22;28534;48.100;11.584;2023-08-24T04:26:41;26.20;63.70
42885;DHT22;28534;48.100;11.584;2023-08-24T04:27:42;26.20;63.90
42885;DHT22;28534;48.100;11.584;2023-08-24T04:28:43;26.10;63.90
42885;DHT22;28534;48.100;11.584;2023-08-24T04:29:44;26.10;63.80
42885;DHT22;28534;48.100;11.584;2023-08-24T04:30:50;26.20;63.90
42885;DHT22;28534;48.100;11.584;2023-08-24T04:31:51;26.10;63.70
42885;DHT22;28534;48.100;11.584;2023-08-24T04:32:53;26.20;63.70
42885;DHT22;28534;48.100;11.584;2023-08-24T04:33:54;26.20;63.70
42885;DHT22;28534;48.100;11.584;2023-08-24T04:34:55;26.10;63.80
42885;DHT22;28534;48.100;11.584;2023-08-24T04:35:56;26.20;63.60
42885;DHT22;28534;48.100;11.584;2023-08-24T04:36:58;26.20;63.60
42885;DHT22;28534;48.100;11.584;2023-08-24T04:37:58;26.20;63.60
42885;DHT22;28534;48.100;11.584;2023-08-24T04:39:00;26.20;63.50
42885;DHT22;28534;48.100;11.584;2023-08-24T04:40:00;26.20;63.60
42885;DHT22;28534;48.100;11.584;2023-08-24T04:41:02;26.20;63.50
42885;DHT22;28534;48.100;11.584;2023-08-24T04:42:07;26.20;63.70
42885;DHT22;28534;48.100;11.584;2023-08-24T04:43:09;26.20;63.40
42885;DHT22;28534;48.100;11.584;2023-08-24T04:44:09;26.20;63.60
42885;DHT22;28534;48.100;11.584;2023-08-24T04:45:11;26.20;63.50
42885;DHT22;28534;48.100;11.584;2023-08-24T04:46:13;26.20;63.50
42885;DHT22;28534;48.100;11.584;2023-08-24T04:47:14;26.20;63.50
42885;DHT22;28534;48.100;11.584;2023-08-24T04:48:15;26.20;63.50
42885;DHT22;28534;48.100;11.584;2023-08-24T04:49:17;26.20;63.60
42885;DHT22;28534;48.100;11.584;2023-08-24T04:50:17;26.20;64.30
42885;DHT22;28534;48.100;11.584;2023-08-24T04:51:19;26.30;65.50
42885;DHT22;28534;48.100;11.584;2023-08-24T04:52:19;26.30;67.40
42885;DHT22;28534;48.100;11.584;2023-08-24T04:53:21;26.30;68.20
42885;DHT22;28534;48.100;11.584;2023-08-24T04:54:22;26.30;70.00
42885;DHT22;28534;48.100;11.584;2023-08-24T04:55:24;26.40;69.70
42885;DHT22;28534;48.100;11.584;2023-08-24T04:56:24;26.40;69.30
42885;DHT22;28534;48.100;11.584;2023-08-24T04:57:26;26.40;68.70
42885;DHT22;28534;48.100;11.584;2023-08-24T04:58:27;26.50;69.10
42885;DHT22;28534;48.100;11.584;2023-08-24T04:59:28;26.50;68.70
42885;DHT22;28534;48.100;11.584;2023-08-24T05:00:29;26.40;67.80
42885;DHT22;28534;48.100;11.584;2023-08-24T05:01:34;26.50;68.50
42885;DHT22;28534;48.100;11.584;2023-08-24T05:02:35;26.40;68.60
42885;DHT22;28534;48.100;11.584;2023-08-24T05:03:36;26.40;68.40
42885;DHT22;28534;48.100;11.584;2023-08-24T05:04:37;26.40;68.40
42885;DHT22;28534;48.100;11.584;2023-08-24T05:05:38;26.40;68.10
42885;DHT22;28534;48.100;11.584;2023-08-24T05:06:39;26.40;68.10
42885;DHT22;28534;48.100;11.584;2023-08-24T05:07:41;26.30;67.80
42885;DHT22;28534;48.100;11.584;2023-08-24T05:08:41;26.40;67.80
42885;DHT22;28534;48.100;11.584;2023-08-24T05:09:43;26.40;68.00
42885;DHT22;28534;48.100;11.584;2023-08-24T05:10:43;26.30;67.90
42885;DHT22;28534;48.100;11.584;2023-08-24T05:11:45;26.30;67.80
42885;DHT22;28534;48.100;11.584;2023-08-24T05:12:46;26.30;67.70
42885;DHT22;28534;48.100;11.584;2023-08-24T05:13:48;26.40;67.60
42885;DHT22;28534;48.100;11.584;2023-08-24T05:14:48;26.40;67.40
42885;DHT22;28534;48.100;11.584;2023-08-24T05:15:50;26.40;67.50
42885;DHT22;28534;48.100;11.584;2023-08-24T05:16:52;26.40;67.30
42885;DHT22;28534;48.100;11.584;2023-08-24T05:17:53;26.30;67.50
42885;DHT22;28534;48.100;11.584;2023-08-24T05:18:56;26.30;67.50
42885;DHT22;28534;48.100;11.584;2023-08-24T05:19:58;26.30;67.30
42885;DHT22;28534;48.100;11.584;2023-08-24T05:20:58;26.30;67.30
42885;DHT22;28534;48.100;11.584;2023-08-24T05:22:00;26.40;66.80
42885;DHT22;28534;48.100;11.584;2023-08-24T05:23:01;26.30;66.70
42885;DHT22;28534;48.100;11.584;2023-08-24T05:24:01;26.40;66.80
42885;DHT22;28534;48.100;11.584;2023-08-24T05:25:04;26.40;66.70
42885;DHT22;28534;48.100;11.584;2023-08-24T05:26:05;26.30;66.80
42885;DHT22;28534;48.100;11.584;2023-08-24T05:27:07;26.30;66.60
42885;DHT22;28534;48.100;11.584;2023-08-24T05:28:07;26.40;66.50
42885;DHT22;28534;48.100;11.584;2023-08-24T05:29:09;26.40;66.00
42885;DHT22;28534;48.100;11.584;2023-08-24T05:30:10;26.50;65.60
42885;DHT22;28534;48.100;11.584;2023-08-24T05:31:12;26.50;65.70
42885;DHT22;28534;48.100;11.584;2023-08-24T05:32:14;26.50;66.00
42885;DHT22;28534;48.100;11.584;2023-08-24T05:33:15;26.50;66.00
42885;DHT22;28534;48.100;11.584;2023-08-24T05:34:16;26.40;66.00
42885;DHT22;28534;48.100;11.584;2023-08-24T05:35:17;26.40;66.10
42885;DHT22;28534;48.100;11.584;2023-08-24T05:36:18;26.40;66.40
42885;DHT22;28534;48.100;11.584;2023-08-24T05:37:19;26.40;66.40
42885;DHT22;28534;48.100;11.584;2023-08-24T05:38:20;26.40;66.30
42885;DHT22;28534;48.100;11.584;2023-08-24T05:39:22;26.50;66.60
42885;DHT22;28534;48.100;11.584;2023-08-24T05:40:22;26.40;66.50
42885;DHT22;28534;48.100;11.584;2023-08-24T05:41:24;26.40;66.50
42885;DHT22;28534;48.100;11.584;2023-08-24T05:42:24;26.30;66.50
42885;DHT22;28534;48.100;11.584;2023-08-24T05:43:26;26.40;66.70
42885;DHT22;28534;48.100;11.584;2023-08-24T05:44:27;26.40;66.70
42885;DHT22;28534;48.100;11.584;2023-08-24T05:45:27;26.40;66.50
42885;DHT22;28534;48.100;11.584;2023-08-24T05:46:29;26.40;66.50
42885;DHT22;28534;48.100;11.584;2023-08-24T05:47:31;26.50;66.50
42885;DHT22;28534;48.100;11.584;2023-08-24T05:48:31;26.50;66.50
42885;DHT22;28534;48.100;11.584;2023-08-24T05:49:33;26.50;66.40
42885;DHT22;28534;48.100;11.584;2023-08-24T05:50:33;26.50;66.40
42885;DHT22;28534;48.100;11.584;2023-08-24T05:51:36;26.50;66.40
42885;DHT22;28534;48.100;11.584;2023-08-24T05:52:36;26.50;66.30
42885;DHT22;28534;48.100;11.584;2023-08-24T05:53:38;26.50;66.20
42885;DHT22;28534;48.100;11.584;2023-08-24T05:54:41;26.50;66.90
42885;DHT22;28534;48.100;11.584;2023-08-24T05:55:42;26.50;66.20
42885;DHT22;28534;48.100;11.584;2023-08-24T05:56:43;26.60;66.40
42885;DHT22;28534;48.100;11.584;2023-08-24T05:57:44;26.50;66.30
42885;DHT22;28534;48.100;11.584;2023-08-24T05:58:45;26.50;66.40
42885;DHT22;28534;48.100;11.584;2023-08-24T05:59:47;26.50;66.50
42885;DHT22;28534;48.100;11.584;2023-08-24T06:00:47;26.50;66.50
42885;DHT22;28534;48.100;11.584;2023-08-24T06:01:48;26.50;66.60
42885;DHT22;28534;48.100;11.584;2023-08-24T06:02:51;26.50;66.60
42885;DHT22;28534;48.100;11.584;2023-08-24T06:03:52;26.50;66.60
42885;DHT22;28534;48.100;11.584;2023-08-24T06:04:53;26.50;66.60
42885;DHT22;28534;48.100;11.584;2023-08-24T06:05:54;26.50;66.60
42885;DHT22;28534;48.100;11.584;2023-08-24T06:07:01;26.50;66.50
42885;DHT22;28534;48.100;11.584;2023-08-24T06:08:04;26.50;66.70
42885;DHT22;28534;48.100;11.584;2023-08-24T06:09:06;26.50;66.70
42885;DHT22;28534;48.100;11.584;2023-08-24T06:10:07;26.50;66.60
42885;DHT22;28534;48.100;11.584;2023-08-24T06:11:08;26.50;66.90
42885;DHT22;28534;48.100;11.584;2023-08-24T06:12:10;26.50;66.90
42885;DHT22;28534;48.100;11.584;2023-08-24T06:13:10;26.60;67.00
42885;DHT22;28534;48.100;11.584;2023-08-24T06:14:11;26.60;67.10
42885;DHT22;28534;48.100;11.584;2023-08-24T06:15:12;26.60;67.40
42885;DHT22;28534;48.100;11.584;2023-08-24T06:16:13;26.60;67.50
42885;DHT22;28534;48.100;11.584;2023-08-24T06:17:15;26.60;67.30
42885;DHT22;28534;48.100;11.584;2023-08-24T06:18:17;26.60;67.40
42885;DHT22;28534;48.100;11.584;2023-08-24T06:19:18;26.60;67.40
42885;DHT22;28534;48.100;11.584;2023-08-24T06:20:19;26.60;67.40
42885;DHT22;28534;48.100;11.584;2023-08-24T06:21:20;26.60;67.50
42885;DHT22;28534;48.100;11.584;2023-08-24T06:22:22;26.60;67.50